Time;durP1;ratioP1;P1;durP2;ratioP2;P2;SDS_P1;SDS_P2;PMS_P1;PMS_P2;Temp;Humidity;BMP_temperature;BMP_pressure;BME280_temperature;BME280_humidity;BME280_pressure;Samples;Min_cycle;Max_cycle;Signal;HPM_P1;HPM_P2
2024/03/25 00:00:34;;;;;;;24.13;21.88;;;;;;;;;;5030330;28;20100;-72
2024/03/25 00:02:59;;;;;;;22.52;20.45;;;;;;;;;;5057764;28;20017;-72
2024/03/25 00:05:25;;;;;;;24.83;22.35;;;;;;;;;;5065022;28;20036;-72
2024/03/25 00:07:51;;;;;;;23.45;21.10;;;;;;;;;;5064371;28;20546;-73
2024/03/25 00:10:16;;;;;;;22.95;20.80;;;;;;;;;;5067767;28;20096;-72
2024/03/25 00:12:41;;;;;;;23.40;21.15;;;;;;;;;;5033819;28;20119;-72
2024/03/25 00:15:07;;;;;;;21.52;19.45;;;;;;;;;;5047769;28;20028;-72
2024/03/25 00:17:32;;;;;;;22.20;19.95;;;;;;;;;;5047704;28;20025;-72
2024/03/25 00:19:58;;;;;;;22.52;20.25;;;;;;;;;;5047493;28;20131;-72
2024/03/25 00:22:25;;;;;;;23.63;21.30;;;;;;;;;;5047021;28;20475;-72
2024/03/25 00:24:51;;;;;;;22.30;19.77;;;;;;;;;;5047152;28;20088;-72
2024/03/25 00:27:16;;;;;;;22.38;20.10;;;;;;;;;;5033105;28;20132;-72
2024/03/25 00:29:42;;;;;;;21.92;19.92;;;;;;;;;;5029482;28;20100;-72
2024/03/25 00:32:07;;;;;;;21.25;19.15;;;;;;;;;;5056465;28;20037;-72
2024/03/25 00:34:33;;;;;;;24.92;19.77;;;;;;;;;;5048662;28;20047;-72
2024/03/25 00:37:01;;;;;;;20.42;17.98;;;;;;;;;;5031946;28;20017;-72
2024/03/25 00:39:27;;;;;;;25.30;22.58;;;;;;;;;;5047146;28;20052;-72
2024/03/25 00:41:53;;;;;;;17.50;15.73;;;;;;;;;;5047390;28;20052;-73
2024/03/25 00:44:19;;;;;;;21.20;18.92;;;;;;;;;;5047324;28;20479;-72
2024/03/25 00:46:44;;;;;;;19.83;17.92;;;;;;;;;;5047565;28;20052;-72
2024/03/25 00:49:10;;;;;;;18.13;16.40;;;;;;;;;;5065960;28;20103;-72
2024/03/25 00:51:35;;;;;;;20.70;17.73;;;;;;;;;;5042771;28;20427;-72
2024/03/25 00:54:01;;;;;;;21.33;19.08;;;;;;;;;;5029195;28;20037;-72
2024/03/25 00:56:26;;;;;;;19.65;17.67;;;;;;;;;;5046800;28;20009;-72
2024/03/25 00:58:52;;;;;;;17.45;15.75;;;;;;;;;;5048752;28;20562;-72
2024/03/25 01:01:17;;;;;;;17.67;16.05;;;;;;;;;;5065112;28;20070;-72
2024/03/25 01:03:43;;;;;;;18.77;16.88;;;;;;;;;;5067957;28;20062;-71
2024/03/25 01:06:08;;;;;;;19.73;17.70;;;;;;;;;;5064997;28;20112;-71
2024/03/25 01:08:34;;;;;;;18.80;16.85;;;;;;;;;;5047010;28;20032;-72
2024/03/25 01:11:00;;;;;;;23.45;21.05;;;;;;;;;;5046659;28;20469;-71
2024/03/25 01:13:25;;;;;;;21.30;19.35;;;;;;;;;;5047413;28;20013;-71
2024/03/25 01:15:51;;;;;;;23.58;21.42;;;;;;;;;;5047059;28;20017;-72
2024/03/25 01:18:17;;;;;;;18.00;16.52;;;;;;;;;;5047560;28;20438;-73
2024/03/25 01:20:42;;;;;;;22.17;19.95;;;;;;;;;;5047301;28;20048;-71
2024/03/25 01:23:07;;;;;;;21.45;19.40;;;;;;;;;;5047656;28;20356;-72
2024/03/25 01:25:32;;;;;;;21.25;19.30;;;;;;;;;;5047747;28;20032;-71
2024/03/25 01:27:58;;;;;;;22.08;19.95;;;;;;;;;;5050352;28;20425;-72
2024/03/25 01:30:23;;;;;;;20.75;18.77;;;;;;;;;;5046698;28;20013;-72
2024/03/25 01:32:49;;;;;;;23.15;21.13;;;;;;;;;;5062527;28;20713;-71
2024/03/25 01:35:15;;;;;;;21.35;19.60;;;;;;;;;;5047185;28;20058;-71
2024/03/25 01:37:40;;;;;;;23.27;21.08;;;;;;;;;;5061047;28;20015;-72
2024/03/25 01:40:06;;;;;;;22.92;20.80;;;;;;;;;;5069697;28;20099;-71
2024/03/25 01:42:31;;;;;;;24.15;21.80;;;;;;;;;;5055749;28;20102;-71
2024/03/25 01:44:57;;;;;;;25.30;22.65;;;;;;;;;;5050702;28;20087;-72
2024/03/25 01:47:22;;;;;;;21.02;19.10;;;;;;;;;;5062570;28;20367;-71
2024/03/25 01:49:49;;;;;;;22.27;20.17;;;;;;;;;;5070839;28;20051;-72
2024/03/25 01:52:15;;;;;;;22.60;20.52;;;;;;;;;;5041198;28;20025;-71
2024/03/25 01:54:40;;;;;;;25.70;23.08;;;;;;;;;;5050011;28;20090;-72
2024/03/25 01:57:06;;;;;;;25.80;23.48;;;;;;;;;;5052220;28;20110;-71
2024/03/25 01:59:31;;;;;;;27.55;24.75;;;;;;;;;;5050894;28;20039;-71
2024/03/25 02:01:57;;;;;;;23.02;21.00;;;;;;;;;;5034538;28;20368;-71
2024/03/25 02:04:22;;;;;;;24.42;22.00;;;;;;;;;;5050846;28;20013;-71
2024/03/25 02:06:49;;;;;;;23.58;21.55;;;;;;;;;;5050238;28;20163;-71
2024/03/25 02:09:14;;;;;;;22.05;20.10;;;;;;;;;;5050602;28;20374;-73
2024/03/25 02:11:40;;;;;;;22.35;20.38;;;;;;;;;;5055824;28;20016;-72
2024/03/25 02:14:06;;;;;;;23.38;21.08;;;;;;;;;;5070119;28;20044;-71
2024/03/25 02:16:32;;;;;;;26.23;23.67;;;;;;;;;;5066872;28;20048;-71
2024/03/25 02:18:57;;;;;;;25.15;22.75;;;;;;;;;;5070471;28;20055;-71
2024/03/25 02:21:22;;;;;;;25.05;22.67;;;;;;;;;;5063729;28;20045;-71
2024/03/25 02:23:49;;;;;;;23.70;21.58;;;;;;;;;;5049551;28;20383;-71
2024/03/25 02:26:15;;;;;;;23.17;21.10;;;;;;;;;;5048936;28;20025;-70
2024/03/25 02:28:40;;;;;;;25.02;22.40;;;;;;;;;;5052943;28;20070;-71
2024/03/25 02:31:06;;;;;;;24.65;22.50;;;;;;;;;;5051753;28;20225;-71
2024/03/25 02:33:31;;;;;;;24.25;21.85;;;;;;;;;;5069825;28;20425;-74
2024/03/25 02:35:56;;;;;;;25.63;23.17;;;;;;;;;;5067404;28;20032;-73
2024/03/25 02:38:22;;;;;;;25.15;22.73;;;;;;;;;;5069941;28;20464;-73
2024/03/25 02:40:48;;;;;;;24.50;22.20;;;;;;;;;;5068982;28;20562;-73
2024/03/25 02:43:13;;;;;;;27.30;24.65;;;;;;;;;;5068556;28;20095;-73
2024/03/25 02:45:38;;;;;;;25.92;23.40;;;;;;;;;;5069424;28;20132;-73
2024/03/25 02:48:04;;;;;;;25.85;23.58;;;;;;;;;;5050500;28;20028;-72
2024/03/25 02:50:29;;;;;;;27.17;24.67;;;;;;;;;;5030809;28;20032;-73
2024/03/25 02:52:54;;;;;;;27.23;24.58;;;;;;;;;;5063681;28;20025;-72
2024/03/25 02:55:20;;;;;;;26.55;24.08;;;;;;;;;;5069407;28;20486;-73
2024/03/25 02:57:45;;;;;;;27.40;25.02;;;;;;;;;;5067730;28;20490;-73
2024/03/25 03:00:11;;;;;;;25.63;23.42;;;;;;;;;;5069712;28;20059;-73
2024/03/25 03:02:36;;;;;;;28.27;25.58;;;;;;;;;;5068844;28;20576;-73
2024/03/25 03:05:03;;;;;;;29.13;26.27;;;;;;;;;;5072506;28;20013;-73
2024/03/25 03:07:29;;;;;;;27.48;24.88;;;;;;;;;;5070841;28;20020;-73
2024/03/25 03:09:54;;;;;;;28.73;26.23;;;;;;;;;;5057943;28;20078;-72
2024/03/25 03:12:19;;;;;;;28.35;25.92;;;;;;;;;;5050179;28;20020;-73
2024/03/25 03:14:45;;;;;;;27.67;25.35;;;;;;;;;;5049372;28;20021;-73
2024/03/25 03:17:10;;;;;;;28.30;25.60;;;;;;;;;;5058390;28;20017;-70
2024/03/25 03:19:35;;;;;;;27.90;24.92;;;;;;;;;;5067486;28;20021;-72
2024/03/25 03:22:01;;;;;;;28.20;25.42;;;;;;;;;;5057901;28;20103;-74
2024/03/25 03:24:27;;;;;;;28.65;25.92;;;;;;;;;;5048412;28;20021;-72
2024/03/25 03:26:53;;;;;;;27.77;25.45;;;;;;;;;;5052553;28;20037;-72
2024/03/25 03:29:18;;;;;;;28.48;26.02;;;;;;;;;;5048623;28;20017;-72
2024/03/25 03:31:43;;;;;;;27.02;24.65;;;;;;;;;;5037103;28;20450;-73
2024/03/25 03:34:09;;;;;;;24.65;22.33;;;;;;;;;;5069374;28;20042;-73
2024/03/25 03:36:34;;;;;;;29.58;26.80;;;;;;;;;;5067521;28;20026;-73
2024/03/25 03:38:59;;;;;;;28.85;26.27;;;;;;;;;;5055208;28;20024;-71
2024/03/25 03:41:25;;;;;;;29.20;26.48;;;;;;;;;;5052674;28;20016;-71
2024/03/25 03:43:50;;;;;;;27.02;24.63;;;;;;;;;;5069772;28;20601;-73
2024/03/25 03:46:15;;;;;;;28.02;25.70;;;;;;;;;;5064612;28;20029;-74
2024/03/25 03:48:41;;;;;;;26.80;24.60;;;;;;;;;;5048663;28;20021;-70
2024/03/25 03:51:06;;;;;;;26.88;24.42;;;;;;;;;;5049982;28;20462;-70
2024/03/25 03:53:32;;;;;;;28.15;25.73;;;;;;;;;;5063009;28;20021;-71
2024/03/25 03:55:58;;;;;;;28.88;26.42;;;;;;;;;;5048658;28;20074;-71
2024/03/25 03:58:23;;;;;;;28.10;25.67;;;;;;;;;;5047820;28;20398;-73
2024/03/25 04:00:49;;;;;;;27.27;24.90;;;;;;;;;;5047767;28;20017;-74
2024/03/25 04:03:14;;;;;;;28.40;25.67;;;;;;;;;;5063460;28;20020;-74
2024/03/25 04:05:39;;;;;;;26.85;24.20;;;;;;;;;;5067502;28;20027;-73
2024/03/25 04:08:05;;;;;;;27.65;25.25;;;;;;;;;;5048194;28;20568;-74
2024/03/25 04:10:30;;;;;;;28.55;26.00;;;;;;;;;;5048336;28;20514;-74
2024/03/25 04:12:56;;;;;;;28.42;25.98;;;;;;;;;;5064111;28;20103;-74
2024/03/25 04:15:22;;;;;;;26.00;23.58;;;;;;;;;;5068320;28;20047;-74
2024/03/25 04:17:48;;;;;;;27.13;24.90;;;;;;;;;;5050876;28;20025;-73
2024/03/25 04:20:14;;;;;;;25.23;23.23;;;;;;;;;;5048479;28;20040;-73
2024/03/25 04:22:43;;;;;;;26.25;23.95;;;;;;;;;;5047540;28;20020;-73
2024/03/25 04:25:12;;;;;;;29.85;27.30;;;;;;;;;;5047966;28;20043;-73
2024/03/25 04:27:38;;;;;;;29.48;26.92;;;;;;;;;;5047766;28;20025;-73
2024/03/25 04:30:03;;;;;;;27.25;24.88;;;;;;;;;;5046846;28;20017;-73
2024/03/25 04:32:29;;;;;;;26.40;24.17;;;;;;;;;;5053943;28;20063;-73
2024/03/25 04:34:54;;;;;;;27.10;24.85;;;;;;;;;;5046505;28;20024;-73
2024/03/25 04:37:20;;;;;;;29.92;27.48;;;;;;;;;;5050237;28;20025;-71
2024/03/25 04:39:46;;;;;;;25.42;23.42;;;;;;;;;;5047445;28;20017;-71
2024/03/25 04:42:11;;;;;;;26.95;24.70;;;;;;;;;;5040523;28;20037;-71
2024/03/25 04:44:37;;;;;;;27.95;25.48;;;;;;;;;;5063914;28;20199;-71
2024/03/25 04:47:02;;;;;;;28.17;25.63;;;;;;;;;;5046373;28;20033;-71
2024/03/25 04:49:27;;;;;;;28.38;25.73;;;;;;;;;;5046687;28;20490;-70
2024/03/25 04:51:53;;;;;;;27.92;25.63;;;;;;;;;;5037985;28;20032;-70
2024/03/25 04:54:18;;;;;;;26.90;24.70;;;;;;;;;;5067401;28;20466;-71
2024/03/25 04:56:44;;;;;;;25.90;23.88;;;;;;;;;;5058940;28;20021;-70
2024/03/25 04:59:09;;;;;;;25.95;23.95;;;;;;;;;;5047169;28;20100;-70
2024/03/25 05:01:35;;;;;;;27.52;25.40;;;;;;;;;;5046600;28;20025;-71
2024/03/25 05:04:00;;;;;;;30.17;27.33;;;;;;;;;;5029079;28;20028;-71
2024/03/25 05:06:26;;;;;;;27.40;25.15;;;;;;;;;;5029598;28;20021;-70
2024/03/25 05:08:51;;;;;;;28.80;26.15;;;;;;;;;;5047046;28;20360;-70
2024/03/25 05:11:16;;;;;;;26.25;24.10;;;;;;;;;;5049947;28;20009;-70
2024/03/25 05:13:41;;;;;;;25.38;23.20;;;;;;;;;;5067351;28;20024;-70
2024/03/25 05:16:07;;;;;;;29.35;26.75;;;;;;;;;;5070125;28;20028;-70
2024/03/25 05:18:32;;;;;;;27.27;24.95;;;;;;;;;;5068804;28;20016;-70
2024/03/25 05:20:57;;;;;;;29.70;26.92;;;;;;;;;;5068698;28;20308;-71
2024/03/25 05:23:22;;;;;;;26.27;23.95;;;;;;;;;;5071266;28;20029;-70
2024/03/25 05:25:48;;;;;;;29.70;27.10;;;;;;;;;;5044676;28;20017;-71
2024/03/25 05:28:13;;;;;;;23.52;21.55;;;;;;;;;;5069796;28;20386;-70
2024/03/25 05:30:38;;;;;;;27.33;24.90;;;;;;;;;;5070652;28;20087;-70
2024/03/25 05:33:04;;;;;;;26.70;24.42;;;;;;;;;;5063402;28;20021;-70
2024/03/25 05:35:30;;;;;;;27.58;25.05;;;;;;;;;;5057863;28;20507;-70
2024/03/25 05:37:55;;;;;;;29.10;26.40;;;;;;;;;;5067793;28;20086;-71
2024/03/25 05:40:21;;;;;;;27.13;24.75;;;;;;;;;;5070719;28;20474;-70
2024/03/25 05:42:46;;;;;;;26.05;23.95;;;;;;;;;;5053346;28;20699;-70
2024/03/25 05:45:12;;;;;;;29.27;26.85;;;;;;;;;;5050604;28;20017;-70
2024/03/25 05:47:37;;;;;;;28.40;25.88;;;;;;;;;;5051984;28;20087;-70
2024/03/25 05:50:05;;;;;;;29.02;26.60;;;;;;;;;;5067542;28;20715;-70
2024/03/25 05:52:30;;;;;;;27.23;25.08;;;;;;;;;;5055112;28;20040;-71
2024/03/25 05:54:56;;;;;;;27.23;25.00;;;;;;;;;;5050071;28;20029;-71
2024/03/25 05:57:21;;;;;;;32.03;29.13;;;;;;;;;;5045069;28;20450;-71
2024/03/25 05:59:46;;;;;;;28.13;25.73;;;;;;;;;;5069983;28;20024;-71
2024/03/25 06:02:12;;;;;;;29.30;26.80;;;;;;;;;;5057870;28;20443;-70
2024/03/25 06:04:37;;;;;;;29.33;26.83;;;;;;;;;;5050080;28;20067;-70
2024/03/25 06:07:02;;;;;;;31.30;28.58;;;;;;;;;;5049369;28;20454;-70
2024/03/25 06:09:27;;;;;;;31.20;27.88;;;;;;;;;;5050437;28;20021;-72
2024/03/25 06:11:53;;;;;;;27.67;25.27;;;;;;;;;;5058591;28;20032;-70
2024/03/25 06:14:18;;;;;;;27.75;25.38;;;;;;;;;;5070507;28;20478;-71
2024/03/25 06:16:43;;;;;;;27.38;25.02;;;;;;;;;;5059443;28;20025;-70
2024/03/25 06:19:08;;;;;;;28.25;26.00;;;;;;;;;;5050016;28;20386;-71
2024/03/25 06:21:34;;;;;;;27.23;24.95;;;;;;;;;;5050039;28;20483;-71
2024/03/25 06:23:59;;;;;;;30.27;27.48;;;;;;;;;;5049669;28;20025;-71
2024/03/25 06:26:24;;;;;;;27.00;24.65;;;;;;;;;;5048651;28;20025;-72
2024/03/25 06:28:50;;;;;;;28.52;25.90;;;;;;;;;;5052895;28;20328;-73
2024/03/25 06:34:15;;;;;;;30.95;28.02;;;;;;;;;;5062852;28;20024;-72
2024/03/25 06:36:40;;;;;;;28.45;25.75;;;;;;;;;;5060282;28;20229;-72
2024/03/25 06:39:06;;;;;;;27.08;24.88;;;;;;;;;;5048393;28;20206;-71
2024/03/25 06:41:31;;;;;;;28.33;26.00;;;;;;;;;;5050272;28;20042;-73
2024/03/25 06:43:56;;;;;;;26.52;24.35;;;;;;;;;;5062191;28;20016;-72
2024/03/25 06:46:22;;;;;;;27.50;25.38;;;;;;;;;;5059042;28;20025;-72
2024/03/25 06:48:47;;;;;;;26.20;24.08;;;;;;;;;;5059175;28;20023;-71
2024/03/25 06:51:12;;;;;;;28.00;25.52;;;;;;;;;;5056507;28;20111;-71
2024/03/25 06:53:37;;;;;;;26.90;24.73;;;;;;;;;;5068553;28;20021;-72
2024/03/25 06:56:03;;;;;;;23.98;21.92;;;;;;;;;;5060092;28;20517;-71
2024/03/25 06:58:28;;;;;;;24.10;21.67;;;;;;;;;;5057049;28;20013;-71
2024/03/25 07:00:55;;;;;;;25.80;23.58;;;;;;;;;;5039866;28;20374;-73
2024/03/25 07:03:21;;;;;;;36.47;32.88;;;;;;;;;;5053411;28;20025;-73
2024/03/25 07:05:46;;;;;;;31.65;28.98;;;;;;;;;;5038097;28;20678;-73
2024/03/25 07:08:12;;;;;;;32.17;27.88;;;;;;;;;;5047878;28;20032;-73
2024/03/25 07:10:37;;;;;;;30.67;27.63;;;;;;;;;;5054544;28;20017;-69
2024/03/25 07:13:03;;;;;;;26.23;23.73;;;;;;;;;;5053572;28;20039;-74
2024/03/25 07:15:28;;;;;;;30.75;27.50;;;;;;;;;;5050752;28;20560;-73
2024/03/25 07:17:53;;;;;;;29.63;26.77;;;;;;;;;;5048555;28;20724;-72
2024/03/25 07:20:19;;;;;;;34.75;31.75;;;;;;;;;;5054174;28;20044;-73
2024/03/25 07:22:44;;;;;;;33.88;31.02;;;;;;;;;;5046141;28;20032;-74
2024/03/25 07:25:11;;;;;;;490.48;93.53;;;;;;;;;;5047796;28;20040;-74
2024/03/25 07:27:37;;;;;;;2.83;1.55;;;;;;;;;;5060002;28;20020;-73
2024/03/25 07:30:06;;;;;;;2.38;1.50;;;;;;;;;;5039290;28;20402;-72
2024/03/25 07:32:31;;;;;;;2.80;1.30;;;;;;;;;;5051579;28;20100;-71
2024/03/25 07:34:56;;;;;;;5.38;1.90;;;;;;;;;;5049467;28;20166;-73
2024/03/25 07:37:22;;;;;;;6.35;1.65;;;;;;;;;;5058237;28;20106;-73
2024/03/25 07:39:47;;;;;;;3.38;1.27;;;;;;;;;;5065268;28;20532;-74
2024/03/25 07:42:13;;;;;;;3.33;1.25;;;;;;;;;;5046673;28;20119;-73
2024/03/25 07:44:39;;;;;;;3.97;1.88;;;;;;;;;;5048479;28;20024;-72
2024/03/25 07:47:04;;;;;;;4.15;1.77;;;;;;;;;;5051012;28;20028;-72
2024/03/25 07:49:30;;;;;;;2.78;1.33;;;;;;;;;;5050583;28;20044;-73
2024/03/25 07:51:56;;;;;;;3.03;1.85;;;;;;;;;;5058222;28;20028;-72
2024/03/25 07:54:21;;;;;;;3.05;1.48;;;;;;;;;;5030855;28;20713;-73
2024/03/25 07:56:47;;;;;;;3.17;1.40;;;;;;;;;;5051750;28;20026;-73
2024/03/25 07:59:12;;;;;;;4.13;1.40;;;;;;;;;;5033765;28;20108;-73
2024/03/25 08:01:38;;;;;;;2.33;1.23;;;;;;;;;;5051153;28;20020;-72
2024/03/25 08:04:03;;;;;;;2.22;1.40;;;;;;;;;;5047720;28;20277;-73
2024/03/25 08:06:28;;;;;;;5.28;1.23;;;;;;;;;;5053413;28;20094;-72
2024/03/25 08:08:54;;;;;;;1.52;1.30;;;;;;;;;;5049988;28;20418;-73
2024/03/25 08:11:19;;;;;;;2.03;1.05;;;;;;;;;;5044029;28;20016;-72
2024/03/25 08:13:44;;;;;;;5.70;1.30;;;;;;;;;;5048367;28;20613;-71
2024/03/25 08:16:09;;;;;;;1.90;1.20;;;;;;;;;;5043493;28;20031;-72
2024/03/25 08:18:35;;;;;;;2.22;1.15;;;;;;;;;;5049600;28;20033;-74
2024/03/25 08:21:00;;;;;;;2.88;1.13;;;;;;;;;;5049336;28;20285;-74
2024/03/25 08:23:25;;;;;;;1.90;1.30;;;;;;;;;;5030271;28;20025;-73
2024/03/25 08:25:51;;;;;;;2.88;1.08;;;;;;;;;;5031079;28;20037;-74
2024/03/25 08:28:16;;;;;;;1.98;1.20;;;;;;;;;;5030093;28;20042;-74
2024/03/25 08:30:41;;;;;;;1.75;1.15;;;;;;;;;;5032089;28;20020;-73
2024/03/25 08:33:06;;;;;;;3.35;1.33;;;;;;;;;;5020882;28;20029;-73
2024/03/25 08:35:32;;;;;;;2.58;1.23;;;;;;;;;;5025672;28;20041;-74
2024/03/25 08:37:57;;;;;;;2.80;1.05;;;;;;;;;;5035503;28;20592;-74
2024/03/25 08:40:22;;;;;;;2.03;1.30;;;;;;;;;;5023292;28;20018;-74
2024/03/25 08:42:48;;;;;;;2.78;1.70;;;;;;;;;;5020605;28;20045;-73
2024/03/25 08:45:13;;;;;;;1.50;1.40;;;;;;;;;;5020924;28;20558;-73
2024/03/25 08:47:40;;;;;;;1.92;1.50;;;;;;;;;;5024803;28;20045;-73
2024/03/25 08:50:05;;;;;;;2.17;1.30;;;;;;;;;;5026558;28;20040;-73
2024/03/25 08:52:31;;;;;;;3.00;1.40;;;;;;;;;;5027127;28;20029;-73
2024/03/25 08:54:56;;;;;;;1.85;1.30;;;;;;;;;;5022841;28;20693;-73
2024/03/25 08:57:21;;;;;;;3.97;1.38;;;;;;;;;;5058504;28;20028;-73
2024/03/25 08:59:47;;;;;;;2.75;0.98;;;;;;;;;;5048096;28;20566;-73
2024/03/25 09:02:12;;;;;;;2.45;1.20;;;;;;;;;;5052858;28;20017;-73
2024/03/25 09:04:37;;;;;;;2.63;1.50;;;;;;;;;;5029538;28;20119;-73
2024/03/25 09:07:02;;;;;;;5.07;1.80;;;;;;;;;;5046730;28;20074;-73
2024/03/25 09:12:11;;;;;;;2.67;1.23;;;;;;;;;;5054898;28;20020;-73
2024/03/25 09:14:38;;;;;;;9.05;1.83;;;;;;;;;;5047072;28;20021;-73
2024/03/25 09:17:03;;;;;;;1.30;1.20;;;;;;;;;;5047532;28;20025;-73
2024/03/25 09:19:28;;;;;;;3.15;1.38;;;;;;;;;;5051600;28;20023;-73
2024/03/25 09:21:54;;;;;;;1.52;1.30;;;;;;;;;;5059175;28;20479;-73
2024/03/25 09:24:19;;;;;;;2.78;1.52;;;;;;;;;;5060469;28;20028;-73
2024/03/25 09:26:45;;;;;;;2.47;1.50;;;;;;;;;;5062882;28;20479;-74
2024/03/25 09:29:11;;;;;;;1.83;1.30;;;;;;;;;;5060499;28;20256;-73
2024/03/25 09:31:37;;;;;;;3.65;1.83;;;;;;;;;;5045431;28;20025;-74
2024/03/25 09:34:02;;;;;;;1.77;1.40;;;;;;;;;;5065280;28;20024;-73
2024/03/25 09:36:27;;;;;;;3.05;1.50;;;;;;;;;;5061066;28;20025;-73
2024/03/25 09:38:53;;;;;;;2.85;1.50;;;;;;;;;;5046819;28;20021;-73
2024/03/25 09:41:19;;;;;;;2.13;1.30;;;;;;;;;;5048167;28;20096;-73
2024/03/25 09:43:47;;;;;;;3.83;1.60;;;;;;;;;;5047020;28;20151;-73
2024/03/25 09:46:13;;;;;;;1.85;1.40;;;;;;;;;;5048737;28;20035;-73
2024/03/25 09:48:39;;;;;;;3.35;1.50;;;;;;;;;;5050235;28;20029;-74
2024/03/25 09:51:04;;;;;;;4.00;1.83;;;;;;;;;;5047144;28;20454;-72
2024/03/25 09:53:30;;;;;;;2.83;1.60;;;;;;;;;;5066822;28;20102;-74
2024/03/25 09:55:56;;;;;;;4.53;1.80;;;;;;;;;;5064194;28;20048;-74
2024/03/25 09:58:22;;;;;;;1.73;1.30;;;;;;;;;;5045608;28;20478;-73
2024/03/25 10:00:47;;;;;;;3.47;1.77;;;;;;;;;;5046459;28;20053;-73
2024/03/25 10:03:14;;;;;;;1.52;1.25;;;;;;;;;;5050887;28;20451;-73
2024/03/25 10:05:39;;;;;;;2.90;1.25;;;;;;;;;;5036143;28;20029;-73
2024/03/25 10:08:05;;;;;;;2.20;1.35;;;;;;;;;;5050521;28;20028;-73
2024/03/25 10:10:31;;;;;;;5.45;1.42;;;;;;;;;;5064473;28;20513;-73
2024/03/25 10:12:56;;;;;;;2.10;1.45;;;;;;;;;;5052431;28;20445;-73
2024/03/25 10:15:21;;;;;;;2.00;1.30;;;;;;;;;;5049887;28;20103;-73
2024/03/25 10:17:49;;;;;;;2.88;1.25;;;;;;;;;;5049670;28;20025;-73
2024/03/25 10:20:14;;;;;;;1.63;1.33;;;;;;;;;;5064254;28;20278;-74
2024/03/25 10:22:43;;;;;;;2.70;1.52;;;;;;;;;;5054094;28;20293;-73
2024/03/25 10:25:18;;;;;;;5.25;1.33;;;;;;;;;;5033804;28;20029;-73
2024/03/25 10:27:52;;;;;;;3.33;1.20;;;;;;;;;;5063690;28;20040;-73
2024/03/25 10:30:18;;;;;;;4.25;1.30;;;;;;;;;;5070153;28;20012;-73
2024/03/25 10:32:44;;;;;;;8.00;1.70;;;;;;;;;;5054038;28;20025;-73
2024/03/25 10:35:09;;;;;;;2.90;1.20;;;;;;;;;;5067159;28;20029;-73
2024/03/25 10:37:34;;;;;;;3.08;1.10;;;;;;;;;;5060041;28;20013;-73
2024/03/25 10:40:00;;;;;;;1.75;1.13;;;;;;;;;;5051521;28;20052;-74
2024/03/25 10:42:26;;;;;;;1.48;1.05;;;;;;;;;;5053740;28;20055;-74
2024/03/25 10:44:52;;;;;;;4.28;1.10;;;;;;;;;;5049355;28;20056;-74
2024/03/25 10:47:23;;;;;;;3.83;1.10;;;;;;;;;;5050475;28;20029;-74
2024/03/25 10:49:49;;;;;;;1.73;0.90;;;;;;;;;;5049699;28;20040;-74
2024/03/25 10:52:15;;;;;;;6.47;1.25;;;;;;;;;;5059356;28;20024;-73
2024/03/25 10:54:41;;;;;;;1.75;0.98;;;;;;;;;;5053063;28;20021;-74
2024/03/25 10:57:07;;;;;;;2.60;1.08;;;;;;;;;;5057808;28;20048;-74
2024/03/25 10:59:37;;;;;;;1.42;0.90;;;;;;;;;;5061385;28;20053;-74
2024/03/25 11:02:03;;;;;;;1.23;1.00;;;;;;;;;;5057940;28;20454;-74
2024/03/25 11:04:28;;;;;;;3.65;1.20;;;;;;;;;;5059967;28;20028;-73
2024/03/25 11:06:53;;;;;;;3.67;1.20;;;;;;;;;;5058726;28;20115;-74
2024/03/25 11:09:28;;;;;;;2.33;1.20;;;;;;;;;;5049614;28;20025;-73
2024/03/25 11:11:53;;;;;;;3.22;1.00;;;;;;;;;;5033481;28;20021;-74
2024/03/25 11:14:19;;;;;;;1.23;0.90;;;;;;;;;;5048709;28;20079;-73
2024/03/25 11:16:50;;;;;;;2.20;0.80;;;;;;;;;;5052856;28;20025;-74
2024/03/25 11:19:17;;;;;;;1.30;0.77;;;;;;;;;;5055496;28;20020;-73
2024/03/25 11:21:42;;;;;;;1.48;1.27;;;;;;;;;;5061152;28;20036;-73
2024/03/25 11:24:07;;;;;;;4.57;1.00;;;;;;;;;;5036720;28;20471;-74
2024/03/25 11:26:35;;;;;;;4.80;1.40;;;;;;;;;;5056028;28;20320;-74
2024/03/25 11:29:01;;;;;;;1.63;1.10;;;;;;;;;;5039335;28;20043;-74
2024/03/25 11:31:27;;;;;;;2.95;1.00;;;;;;;;;;5056660;28;20081;-73
2024/03/25 11:33:52;;;;;;;0.85;0.77;;;;;;;;;;5035744;28;20463;-74
2024/03/25 11:36:18;;;;;;;6.03;0.70;;;;;;;;;;5057790;28;20158;-74
2024/03/25 11:38:44;;;;;;;4.68;0.80;;;;;;;;;;5051064;28;20017;-73
2024/03/25 11:41:12;;;;;;;1.80;0.73;;;;;;;;;;5044919;28;20077;-74
2024/03/25 11:43:37;;;;;;;4.40;0.95;;;;;;;;;;5045163;28;20174;-74
2024/03/25 11:46:03;;;;;;;1.48;0.80;;;;;;;;;;5044060;28;20514;-74
2024/03/25 11:48:32;;;;;;;1.65;1.17;;;;;;;;;;5045020;28;20032;-73
2024/03/25 11:50:57;;;;;;;;;;;;;;;;;;5048283;28;20306;-73
2024/03/25 11:53:22;;;;;;;2.25;0.80;;;;;;;;;;5048055;28;20174;-74
2024/03/25 11:55:48;;;;;;;2.40;1.13;;;;;;;;;;5061016;28;20035;-72
2024/03/25 11:58:13;;;;;;;4.07;1.05;;;;;;;;;;5066004;28;20451;-73
2024/03/25 12:00:43;;;;;;;1.85;0.90;;;;;;;;;;5046822;28;20173;-71
2024/03/25 12:03:08;;;;;;;1.05;0.95;;;;;;;;;;5051276;28;20025;-71
2024/03/25 12:05:34;;;;;;;4.18;2.25;;;;;;;;;;5067615;28;20481;-72
2024/03/25 12:07:59;;;;;;;34.77;13.27;;;;;;;;;;5049757;28;20479;-71
2024/03/25 12:13:08;;;;;;;9.15;2.15;;;;;;;;;;5050139;28;20028;-72
2024/03/25 12:15:33;;;;;;;3.13;1.02;;;;;;;;;;5051888;28;20033;-72
2024/03/25 12:17:59;;;;;;;1.33;0.80;;;;;;;;;;5067863;28;20028;-72
2024/03/25 12:20:25;;;;;;;1.10;0.80;;;;;;;;;;5055272;28;20542;-71
2024/03/25 12:22:50;;;;;;;4.45;1.00;;;;;;;;;;5047749;28;20028;-73
2024/03/25 12:25:17;;;;;;;5.32;1.08;;;;;;;;;;5046949;28;20041;-71
2024/03/25 12:27:45;;;;;;;2.20;0.90;;;;;;;;;;5048967;28;20088;-71
2024/03/25 12:30:11;;;;;;;3.70;1.25;;;;;;;;;;5051882;28;20032;-71
2024/03/25 12:32:37;;;;;;;1.02;0.80;;;;;;;;;;5048445;28;20033;-71
2024/03/25 12:35:04;;;;;;;2.22;0.90;;;;;;;;;;5048275;28;20048;-71
2024/03/25 12:37:30;;;;;;;2.25;0.80;;;;;;;;;;5056535;28;20078;-71
2024/03/25 12:39:58;;;;;;;1.52;0.80;;;;;;;;;;5033496;28;20434;-72
2024/03/25 12:42:23;;;;;;;1.40;0.68;;;;;;;;;;5045917;28;20672;-72
2024/03/25 12:44:49;;;;;;;0.70;0.63;;;;;;;;;;5048331;28;20032;-72
2024/03/25 12:47:14;;;;;;;5.88;2.30;;;;;;;;;;5047589;28;20043;-72
2024/03/25 12:49:39;;;;;;;1.60;0.80;;;;;;;;;;5060169;28;20422;-72
2024/03/25 12:52:05;;;;;;;4.35;0.90;;;;;;;;;;5054722;28;20013;-71
2024/03/25 12:54:30;;;;;;;1.83;0.70;;;;;;;;;;4996286;28;20028;-71
2024/03/25 12:56:56;;;;;;;1.50;0.82;;;;;;;;;;5056525;28;20029;-71
2024/03/25 12:59:21;;;;;;;1.63;0.88;;;;;;;;;;5055281;28;20071;-71
2024/03/25 13:01:47;;;;;;;1.48;1.30;;;;;;;;;;5051119;28;20797;-71
2024/03/25 13:04:13;;;;;;;9.57;1.30;;;;;;;;;;5046841;28;20041;-72
2024/03/25 13:06:38;;;;;;;2.17;1.88;;;;;;;;;;5048358;28;20089;-72
2024/03/25 13:09:19;;;;;;;1.88;1.00;;;;;;;;;;5047935;28;20210;-71
2024/03/25 13:11:44;;;;;;;3.60;1.05;;;;;;;;;;5048373;28;20032;-73
2024/03/25 13:14:11;;;;;;;3.83;1.70;;;;;;;;;;5050657;28;20021;-73
2024/03/25 13:16:36;;;;;;;3.05;0.90;;;;;;;;;;5051179;28;20028;-71
2024/03/25 13:19:01;;;;;;;1.20;0.90;;;;;;;;;;5054733;28;20025;-71
2024/03/25 13:21:27;;;;;;;2.83;1.00;;;;;;;;;;5050439;28;20363;-72
2024/03/25 13:23:52;;;;;;;2.97;0.93;;;;;;;;;;5048060;28;20037;-73
2024/03/25 13:26:17;;;;;;;2.92;1.00;;;;;;;;;;5050791;28;20270;-74
2024/03/25 13:28:43;;;;;;;5.57;1.00;;;;;;;;;;5044231;28;20865;-72
2024/03/25 13:31:08;;;;;;;5.38;1.10;;;;;;;;;;5055086;28;20029;-73
2024/03/25 13:33:33;;;;;;;2.17;1.15;;;;;;;;;;5034589;28;20104;-73
2024/03/25 13:35:59;;;;;;;2.80;1.00;;;;;;;;;;5055934;28;20485;-73
2024/03/25 13:38:24;;;;;;;3.67;1.20;;;;;;;;;;5051104;28;20036;-73
2024/03/25 13:40:49;;;;;;;5.07;1.25;;;;;;;;;;5048593;28;20678;-73
2024/03/25 13:43:15;;;;;;;3.10;1.02;;;;;;;;;;5058525;28;20386;-73
2024/03/25 13:45:46;;;;;;;2.47;1.20;;;;;;;;;;5054096;28;20025;-73
2024/03/25 13:48:11;;;;;;;1.30;0.98;;;;;;;;;;5049220;28;20037;-73
2024/03/25 13:50:37;;;;;;;2.10;0.82;;;;;;;;;;5050023;28;20032;-73
2024/03/25 13:53:02;;;;;;;2.80;1.05;;;;;;;;;;5050685;28;20025;-72
2024/03/25 13:55:27;;;;;;;2.70;0.93;;;;;;;;;;5066934;28;20094;-72
2024/03/25 13:57:53;;;;;;;1.00;0.95;;;;;;;;;;5052591;28;20021;-73
2024/03/25 14:00:18;;;;;;;1.70;1.00;;;;;;;;;;5034753;28;20021;-74
2024/03/25 14:02:43;;;;;;;5.47;1.38;;;;;;;;;;5052613;28;20254;-73
2024/03/25 14:05:09;;;;;;;3.97;1.48;;;;;;;;;;5060850;28;20455;-74
2024/03/25 14:07:34;;;;;;;2.33;1.20;;;;;;;;;;5060831;28;20025;-73
2024/03/25 14:09:59;;;;;;;3.10;1.33;;;;;;;;;;5064105;28;20032;-74
2024/03/25 14:12:25;;;;;;;1.42;1.20;;;;;;;;;;5048530;28;20020;-73
2024/03/25 14:14:50;;;;;;;1.45;0.98;;;;;;;;;;5057489;28;20074;-73
2024/03/25 14:17:16;;;;;;;1.35;1.00;;;;;;;;;;5043529;28;20052;-74
2024/03/25 14:19:41;;;;;;;6.88;1.20;;;;;;;;;;5037821;28;20025;-74
2024/03/25 14:22:06;;;;;;;1.15;0.90;;;;;;;;;;5054745;28;20037;-74
2024/03/25 14:24:32;;;;;;;1.98;1.30;;;;;;;;;;5055763;28;20056;-74
2024/03/25 14:26:58;;;;;;;4.20;1.40;;;;;;;;;;5032877;28;20033;-73